Chandler, MN (56122)

10:57 PM CDT on September 25, 2016 (GMT -0500)
East Lake Wilson | | Change Station

Elev 1644 ft 43.99 °N, 95.92 °W | Updated 7 seconds ago

Clear
Clear
49.8 °F
Feels Like 50 °F
N
0.0
Wind Variable Wind from WSW
Gusts 0.0 mph

Today
High -- | Low -- °F
--% Chance of Precip.
Yesterday
High -- | Low -- °F
Precip. -- in
Pressure 30.13 in
Visibility 10.0 miles
Clouds Clear
Windchill 50 °F
Dew Point 40 °F
Humidity 70%
Rainfall 0.18 in
Snow Depth Not available.
7:15 AM 7:14 PM
Waning Crescent, 22% visible
METAR KDVP 260259Z AUTO 27008KT 10SM CLR 11/05 A3013 RMK AO2
Pressure 30.13 in
Visibility 10.0 miles
Clouds Clear
Windchill 50 °F
Dew Point 40 °F
Humidity 70%
Rainfall 0.18 in
Snow Depth Not available.
7:15 AM 7:14 PM
Waning Crescent, 22% visible
METAR KDVP 260259Z AUTO 27008KT 10SM CLR 11/05 A3013 RMK AO2

10-Day Weather Forecast

Almanac

Astronomy

Sep. 25, 2016 Rise Set
Actual Time
Civil Twilight
Nautical Twilight
Astronomical Twilight
Moon
Length of Visible Light
Length of Day
Tomorrow will be .
, % of the Moon is Illuminated

Today's Extremes

State Highs State Lows

Community

WunderPhotos

Upload Photos

1,941,837 photos uploaded!

WunderBlog® & News

Nearby

Air Quality

  Air Quality AQ Index Pollutant
Not available.

Snow Depth

Station Depth Elevation

Earthquake Activity

City Distance Mag. Time & Date
Minimum magnitude displayed is 2.5.

Coastal Water Temperatures

Place Temperature

Stations

Nearby Weather Stations

Station Location Temp. Windchill Dew Point Humidity Wind Precip. Elev Updated Type
                   

Watches & Warnings

There are currently no watches in effect.